createdAt,value
2018-02-09T00:01:37.802Z,91.00
2018-02-09T00:04:05.676Z,91.00
2018-02-09T00:06:33.380Z,90.90
2018-02-09T00:09:01.358Z,90.90
2018-02-09T00:11:29.240Z,90.90
2018-02-09T00:13:56.977Z,90.80
2018-02-09T00:16:24.705Z,90.80
2018-02-09T00:18:53.525Z,91.00
2018-02-09T00:21:21.920Z,91.00
2018-02-09T00:23:49.704Z,91.00
2018-02-09T00:26:17.333Z,91.00
2018-02-09T00:28:45.211Z,91.20
2018-02-09T00:31:13.006Z,91.20
2018-02-09T00:33:40.802Z,91.20
2018-02-09T00:36:08.602Z,91.10
2018-02-09T00:38:36.312Z,91.10
2018-02-09T00:41:03.912Z,91.10
2018-02-09T00:43:31.542Z,91.20
2018-02-09T00:45:59.180Z,91.20
2018-02-09T00:48:27.772Z,91.40
2018-02-09T00:50:55.466Z,91.30
2018-02-09T00:53:23.294Z,91.40
2018-02-09T00:55:51.038Z,91.40
2018-02-09T00:58:18.685Z,90.60
2018-02-09T01:00:46.535Z,90.20
2018-02-09T01:03:14.282Z,90.00
2018-02-09T01:05:41.930Z,90.20
2018-02-09T01:08:10.290Z,90.40
2018-02-09T01:10:38.671Z,90.40
2018-02-09T01:13:07.252Z,90.20
2018-02-09T01:15:35.670Z,90.40
2018-02-09T01:18:03.471Z,90.40
2018-02-09T01:20:31.980Z,90.60
2018-02-09T01:23:00.498Z,90.70
2018-02-09T01:25:28.580Z,90.70
2018-02-09T01:27:56.365Z,90.80
2018-02-09T01:30:24.747Z,91.20
2018-02-09T01:32:52.425Z,91.10
2018-02-09T01:35:20.278Z,91.30
2018-02-09T01:37:47.928Z,91.40
2018-02-09T01:40:15.926Z,91.50
2018-02-09T01:42:43.525Z,91.60
2018-02-09T01:45:11.452Z,91.80
2018-02-09T01:47:39.225Z,91.70
2018-02-09T01:50:15.745Z,91.90
2018-02-09T01:52:43.479Z,91.80
2018-02-09T01:55:11.992Z,92.10
2018-02-09T01:57:40.345Z,92.00
2018-02-09T02:00:08.118Z,92.00
2018-02-09T02:02:36.766Z,92.10
2018-02-09T02:05:04.389Z,92.10
2018-02-09T02:07:32.100Z,92.10
2018-02-09T02:09:59.904Z,92.10
2018-02-09T02:12:27.631Z,92.10
2018-02-09T02:14:55.572Z,92.00
2018-02-09T02:17:23.961Z,92.20
2018-02-09T02:19:51.702Z,92.10
2018-02-09T02:22:19.350Z,92.20
2018-02-09T02:24:48.741Z,91.90
2018-02-09T02:27:16.671Z,91.90
2018-02-09T02:29:44.407Z,91.80
2018-02-09T02:32:12.003Z,91.80
2018-02-09T02:34:40.535Z,91.90
2018-02-09T02:37:08.201Z,91.90
2018-02-09T02:39:37.090Z,92.00
2018-02-09T02:42:04.879Z,92.10
2018-02-09T02:44:34.033Z,92.00
2018-02-09T02:47:02.869Z,91.80
2018-02-09T02:49:31.274Z,91.60
2018-02-09T02:51:59.587Z,91.40
2018-02-09T02:54:27.354Z,91.30
2018-02-09T02:56:55.094Z,91.10
2018-02-09T02:59:22.701Z,90.70
2018-02-09T03:01:50.450Z,90.50
2018-02-09T03:04:18.138Z,90.50
2018-02-09T03:06:45.810Z,90.20
2018-02-09T03:09:13.409Z,90.50
2018-02-09T03:11:41.809Z,90.40
2018-02-09T03:14:09.574Z,90.30
2018-02-09T03:16:37.186Z,90.60
2018-02-09T03:19:04.787Z,90.80
2018-02-09T03:21:33.090Z,91.00
2018-02-09T03:24:00.837Z,90.80
2018-02-09T03:26:28.614Z,90.90
2018-02-09T03:28:56.273Z,90.80
2018-02-09T03:31:23.996Z,90.80
2018-02-09T03:33:51.717Z,90.60
2018-02-09T03:36:20.218Z,90.50
2018-02-09T03:38:47.869Z,90.50
2018-02-09T03:41:16.269Z,90.50
2018-02-09T03:43:44.061Z,90.50
2018-02-09T03:46:11.672Z,90.40
2018-02-09T03:48:39.374Z,90.40
2018-02-09T03:51:07.062Z,90.20
2018-02-09T03:53:34.663Z,90.10
2018-02-09T03:56:03.043Z,89.50
2018-02-09T03:58:30.700Z,89.50
2018-02-09T04:00:58.359Z,89.30
2018-02-09T04:03:27.660Z,89.30
2018-02-09T04:05:56.143Z,89.30
2018-02-09T04:08:23.855Z,88.10
2018-02-09T04:10:51.475Z,88.60
2018-02-09T04:13:19.177Z,88.50
2018-02-09T04:15:47.162Z,88.30
2018-02-09T04:18:14.807Z,88.40
2018-02-09T04:20:42.471Z,88.70
2018-02-09T04:23:11.000Z,88.20
2018-02-09T04:25:38.643Z,88.80
2018-02-09T04:28:06.297Z,87.60
2018-02-09T04:30:33.906Z,87.10
2018-02-09T04:33:01.498Z,87.30
2018-02-09T04:35:29.151Z,87.90
2018-02-09T04:37:56.924Z,87.80
2018-02-09T04:40:24.588Z,87.60
2018-02-09T04:42:52.960Z,87.90
2018-02-09T04:45:20.630Z,87.80
2018-02-09T04:47:48.326Z,86.90
2018-02-09T04:50:16.047Z,84.40
2018-02-09T04:52:43.699Z,81.80
2018-02-09T04:55:11.532Z,81.00
2018-02-09T04:57:39.358Z,84.50
2018-02-09T05:00:07.072Z,85.10
2018-02-09T05:02:34.736Z,85.90
2018-02-09T05:05:02.430Z,85.40
2018-02-09T05:07:30.093Z,85.70
2018-02-09T05:09:57.854Z,85.20
2018-02-09T05:12:26.032Z,85.90
2018-02-09T05:14:53.855Z,84.80
2018-02-09T05:17:21.539Z,84.20
2018-02-09T05:19:49.227Z,83.70
2018-02-09T05:22:16.851Z,82.90
2018-02-09T05:24:45.244Z,83.10
2018-02-09T05:27:14.283Z,83.60
2018-02-09T05:29:41.879Z,82.80
2018-02-09T05:32:09.913Z,82.80
2018-02-09T05:34:37.555Z,82.00
2018-02-09T05:37:05.293Z,82.00
2018-02-09T05:39:33.089Z,82.20
2018-02-09T05:42:00.816Z,81.50
2018-02-09T05:44:28.504Z,81.40
2018-02-09T05:46:56.160Z,81.50
2018-02-09T05:49:23.742Z,81.90
2018-02-09T05:51:51.362Z,82.30
2018-02-09T05:54:19.786Z,82.90
2018-02-09T05:56:47.562Z,82.90
2018-02-09T05:59:15.260Z,83.40
2018-02-09T06:01:42.933Z,83.40
2018-02-09T06:04:10.654Z,83.90
2018-02-09T06:06:38.282Z,83.70
2018-02-09T06:09:06.747Z,81.80
2018-02-09T06:11:35.164Z,81.90
2018-02-09T06:14:02.830Z,81.90
2018-02-09T06:16:30.489Z,80.50
2018-02-09T06:18:58.109Z,79.90
2018-02-09T06:21:25.837Z,79.40
2018-02-09T06:23:53.567Z,79.80
2018-02-09T06:26:21.947Z,81.90
2018-02-09T06:28:51.324Z,82.20
2018-02-09T06:31:19.026Z,82.10
2018-02-09T06:33:46.926Z,81.90
2018-02-09T06:36:14.575Z,81.70
2018-02-09T06:38:42.199Z,81.80
2018-02-09T06:41:09.819Z,82.40
2018-02-09T06:43:37.537Z,82.80
2018-02-09T06:46:05.206Z,82.60
2018-02-09T06:48:32.868Z,81.70
2018-02-09T06:51:00.567Z,80.60
2018-02-09T06:53:28.174Z,80.00
2018-02-09T06:55:55.899Z,79.70
2018-02-09T06:58:23.607Z,79.10
2018-02-09T07:00:51.451Z,79.00
2018-02-09T07:03:19.140Z,79.00
2018-02-09T07:05:46.842Z,78.90
2018-02-09T07:08:15.334Z,79.00
2018-02-09T07:10:42.923Z,79.00
2018-02-09T07:13:10.581Z,79.40
2018-02-09T07:15:38.275Z,79.70
2018-02-09T07:18:05.937Z,79.40
2018-02-09T07:20:33.576Z,78.90
2018-02-09T07:23:01.270Z,78.40
2018-02-09T07:25:29.131Z,78.10
2018-02-09T07:27:56.858Z,77.80
2018-02-09T07:30:25.374Z,77.50
2018-02-09T07:32:53.088Z,77.40
2018-02-09T07:35:20.858Z,77.30
2018-02-09T07:37:48.551Z,76.80
2018-02-09T07:40:16.231Z,77.30
2018-02-09T07:42:43.972Z,78.00
2018-02-09T07:45:11.627Z,78.40
2018-02-09T07:47:39.674Z,79.30
2018-02-09T07:50:08.621Z,80.30
2018-02-09T07:52:37.635Z,80.80
2018-02-09T07:55:05.390Z,81.00
2018-02-09T07:57:33.066Z,81.10
2018-02-09T08:00:02.493Z,81.00
2018-02-09T08:02:30.125Z,80.90
2018-02-09T08:04:57.786Z,80.60
2018-02-09T08:07:25.445Z,80.20
2018-02-09T08:09:54.582Z,79.80
2018-02-09T08:12:22.238Z,79.60
2018-02-09T08:14:49.907Z,79.60
2018-02-09T08:17:17.553Z,80.30
2018-02-09T08:19:45.186Z,80.50
2018-02-09T08:22:12.778Z,80.60
2018-02-09T08:24:40.401Z,80.40
2018-02-09T08:27:08.793Z,80.00
2018-02-09T08:29:36.431Z,79.80
2018-02-09T08:32:04.797Z,79.50
2018-02-09T08:34:32.524Z,79.40
2018-02-09T08:37:00.119Z,79.50
2018-02-09T08:39:27.734Z,79.30
2018-02-09T08:41:55.397Z,79.60
2018-02-09T08:44:22.987Z,78.70
2018-02-09T08:46:50.797Z,78.80
2018-02-09T08:49:18.488Z,78.80
2018-02-09T08:51:46.077Z,79.30
2018-02-09T08:54:13.723Z,80.50
2018-02-09T08:56:41.395Z,81.30
2018-02-09T08:59:09.317Z,82.20
2018-02-09T09:01:37.083Z,83.00
2018-02-09T09:04:04.815Z,83.70
2018-02-09T09:06:32.538Z,84.50
2018-02-09T09:09:00.165Z,84.70
2018-02-09T09:11:27.908Z,84.50
2018-02-09T09:13:56.662Z,84.60
2018-02-09T09:16:24.443Z,84.90
2018-02-09T09:18:52.297Z,84.60
2018-02-09T09:21:21.696Z,84.90
2018-02-09T09:23:50.073Z,84.80
2018-02-09T09:26:17.786Z,85.10
2018-02-09T09:28:46.428Z,84.60
2018-02-09T09:31:14.569Z,85.00
2018-02-09T09:33:43.463Z,85.80
2018-02-09T09:36:11.258Z,85.10
2018-02-09T09:38:39.036Z,84.80
2018-02-09T09:41:06.819Z,85.30
2018-02-09T09:43:34.640Z,85.50
2018-02-09T09:46:02.565Z,85.40
2018-02-09T09:48:31.037Z,84.20
2018-02-09T09:50:58.862Z,84.00
2018-02-09T09:53:26.604Z,84.30
2018-02-09T09:55:54.439Z,83.90
2018-02-09T09:58:23.065Z,84.10
2018-02-09T10:00:50.805Z,84.00
2018-02-09T10:03:18.549Z,84.00
2018-02-09T10:05:46.314Z,84.10
2018-02-09T10:08:14.863Z,83.60
2018-02-09T10:10:42.560Z,83.50
2018-02-09T10:13:10.285Z,83.60
2018-02-09T10:15:38.038Z,83.40
2018-02-09T10:18:05.641Z,83.10
2018-02-09T10:20:34.150Z,81.80
2018-02-09T10:23:02.702Z,80.80
2018-02-09T10:25:30.398Z,80.70
2018-02-09T10:27:58.950Z,81.50
2018-02-09T10:30:26.717Z,81.50
2018-02-09T10:32:54.445Z,81.40
2018-02-09T10:35:22.125Z,81.60
2018-02-09T10:37:50.650Z,80.20
2018-02-09T10:40:18.378Z,80.10
2018-02-09T10:42:46.092Z,79.90
2018-02-09T10:45:13.922Z,79.30
2018-02-09T10:47:41.619Z,77.50
2018-02-09T10:50:09.404Z,78.00
2018-02-09T10:52:37.046Z,77.10
2018-02-09T10:55:05.640Z,75.80
2018-02-09T10:57:33.695Z,75.80
2018-02-09T11:00:01.282Z,74.20
2018-02-09T11:02:30.769Z,72.40
2018-02-09T11:04:58.425Z,71.90
2018-02-09T11:07:26.189Z,71.10
2018-02-09T11:09:53.993Z,70.30
2018-02-09T11:12:22.550Z,70.50
2018-02-09T11:14:50.727Z,70.50
2018-02-09T11:17:19.465Z,69.60
2018-02-09T11:19:47.977Z,67.70
2018-02-09T11:22:15.637Z,67.70
2018-02-09T11:24:43.337Z,64.10
2018-02-09T11:27:11.046Z,64.00
2018-02-09T11:29:39.056Z,60.70
2018-02-09T11:32:06.880Z,58.80
2018-02-09T11:34:34.857Z,57.50
2018-02-09T11:37:05.856Z,56.80
2018-02-09T11:39:34.406Z,56.80
2018-02-09T11:42:02.265Z,56.70
2018-02-09T11:44:29.921Z,57.70
2018-02-09T11:46:57.612Z,57.30
2018-02-09T11:49:25.263Z,58.20
2018-02-09T11:51:53.048Z,57.10
2018-02-09T11:54:20.843Z,55.10
2018-02-09T11:56:49.680Z,53.70
2018-02-09T11:59:18.035Z,53.00
2018-02-09T12:01:46.678Z,53.70
2018-02-09T12:04:14.518Z,53.70
2018-02-09T12:06:43.136Z,53.80
2018-02-09T12:09:11.074Z,53.80
2018-02-09T12:11:38.670Z,53.00
2018-02-09T12:14:06.390Z,53.10
2018-02-09T12:16:34.942Z,52.20
2018-02-09T12:19:02.725Z,52.20
2018-02-09T12:21:31.961Z,53.10
2018-02-09T12:23:59.625Z,53.00
2018-02-09T12:26:28.182Z,51.90
2018-02-09T12:28:56.548Z,52.70
2018-02-09T12:31:24.367Z,53.20
2018-02-09T12:33:52.774Z,52.20
2018-02-09T12:36:21.052Z,50.50
2018-02-09T12:38:48.743Z,50.90
2018-02-09T12:41:16.374Z,50.10
2018-02-09T12:43:44.227Z,50.40
2018-02-09T12:46:11.855Z,50.30
2018-02-09T12:48:39.577Z,50.30
2018-02-09T12:51:07.210Z,49.80
2018-02-09T12:53:34.945Z,48.70
2018-02-09T12:56:03.425Z,48.70
2018-02-09T12:58:31.924Z,48.00
2018-02-09T13:00:59.673Z,48.00
2018-02-09T13:03:28.138Z,48.10
2018-02-09T13:05:56.219Z,48.10
2018-02-09T13:08:24.875Z,48.00
2018-02-09T13:10:52.512Z,48.00
2018-02-09T13:13:21.018Z,46.60
2018-02-09T13:15:49.515Z,48.20
2018-02-09T13:18:28.990Z,48.20
2018-02-09T13:20:56.757Z,47.90
2018-02-09T13:23:35.995Z,48.20
2018-02-09T13:26:03.858Z,47.10
2018-02-09T13:28:43.735Z,47.50
2018-02-09T13:31:11.386Z,47.80
2018-02-09T13:33:39.129Z,47.70
2018-02-09T13:36:10.918Z,46.50
2018-02-09T13:38:39.473Z,46.00
2018-02-09T13:41:07.163Z,46.40
2018-02-09T13:43:34.838Z,45.50
2018-02-09T13:46:03.386Z,45.50
2018-02-09T13:48:31.052Z,45.50
2018-02-09T13:50:58.855Z,46.20
2018-02-09T13:53:26.573Z,44.90
2018-02-09T13:55:54.282Z,44.80
2018-02-09T13:58:21.975Z,44.30
2018-02-09T14:00:49.732Z,45.40
2018-02-09T14:03:18.118Z,44.90
2018-02-09T14:05:47.783Z,44.80
2018-02-09T14:08:15.475Z,44.80
2018-02-09T14:10:43.238Z,45.10
2018-02-09T14:13:11.694Z,45.70
2018-02-09T14:15:39.278Z,45.60
2018-02-09T14:18:06.896Z,45.10
2018-02-09T14:20:34.542Z,44.20
2018-02-09T14:23:02.142Z,42.30
2018-02-09T14:25:29.741Z,43.10
2018-02-09T14:27:57.382Z,43.40
2018-02-09T14:30:25.747Z,41.90
2018-02-09T14:32:53.338Z,41.80
2018-02-09T14:35:20.998Z,40.90
2018-02-09T14:37:49.380Z,40.20
2018-02-09T14:40:17.088Z,36.90
2018-02-09T14:42:44.693Z,35.20
2018-02-09T14:45:12.290Z,35.00
2018-02-09T14:47:40.727Z,34.60
2018-02-09T14:50:08.322Z,34.10
2018-02-09T14:52:36.034Z,33.80
2018-02-09T14:55:03.626Z,34.00
2018-02-09T14:57:31.218Z,32.70
2018-02-09T14:59:58.866Z,35.90
2018-02-09T15:02:26.491Z,35.00
2018-02-09T15:04:54.110Z,36.20
2018-02-09T15:07:22.586Z,33.10
2018-02-09T15:09:50.217Z,32.70
2018-02-09T15:12:17.827Z,31.70
2018-02-09T15:14:45.426Z,31.40
2018-02-09T15:17:13.095Z,30.00
2018-02-09T15:19:40.681Z,30.00
2018-02-09T15:22:08.545Z,30.60
2018-02-09T15:24:36.198Z,30.80
2018-02-09T15:27:03.814Z,31.20
2018-02-09T15:29:32.255Z,31.00
2018-02-09T15:32:00.028Z,31.00
2018-02-09T15:34:27.634Z,30.50
2018-02-09T15:36:55.426Z,31.60
2018-02-09T15:39:23.063Z,32.30
2018-02-09T15:41:51.456Z,31.50
2018-02-09T15:44:19.833Z,31.30
2018-02-09T15:46:48.284Z,31.50
2018-02-09T15:49:15.933Z,31.50
2018-02-09T15:51:43.531Z,30.50
2018-02-09T15:54:11.174Z,31.30
2018-02-09T15:56:38.843Z,31.70
2018-02-09T15:59:07.266Z,31.50
2018-02-09T16:01:34.853Z,31.50
2018-02-09T16:04:02.545Z,31.50
2018-02-09T16:06:30.178Z,31.50
2018-02-09T16:08:57.789Z,31.40
2018-02-09T16:11:25.434Z,32.00
2018-02-09T16:13:53.017Z,32.80
2018-02-09T16:16:22.148Z,34.40
2018-02-09T16:18:50.534Z,38.60
2018-02-09T16:21:18.954Z,40.00
2018-02-09T16:23:46.555Z,40.00
2018-02-09T16:26:14.947Z,41.00
2018-02-09T16:28:43.335Z,41.80
2018-02-09T16:31:10.956Z,41.90
2018-02-09T16:33:38.586Z,41.10
2018-02-09T16:36:06.214Z,40.20
2018-02-09T16:38:34.586Z,40.50
2018-02-09T16:41:02.226Z,40.20
2018-02-09T16:43:29.809Z,40.70
2018-02-09T16:45:57.447Z,41.30
2018-02-09T16:48:25.053Z,43.30
2018-02-09T16:50:52.694Z,44.70
2018-02-09T16:53:20.641Z,46.20
2018-02-09T16:55:48.280Z,47.30
2018-02-09T16:58:15.907Z,48.00
2018-02-09T17:00:43.530Z,48.60
2018-02-09T17:03:11.164Z,49.50
2018-02-09T17:05:39.765Z,50.70
2018-02-09T17:08:07.405Z,51.90
2018-02-09T17:10:35.809Z,53.40
2018-02-09T17:13:03.429Z,53.40
2018-02-09T17:15:31.018Z,53.70
2018-02-09T17:17:58.653Z,54.30
2018-02-09T17:20:26.239Z,54.10
2018-02-09T17:22:54.662Z,54.70
2018-02-09T17:25:22.259Z,54.70
2018-02-09T17:27:51.346Z,55.70
2018-02-09T17:30:18.990Z,55.70
2018-02-09T17:32:46.644Z,56.00
2018-02-09T17:35:14.286Z,56.00
2018-02-09T17:37:43.824Z,55.90
2018-02-09T17:40:11.546Z,55.90
2018-02-09T17:42:39.214Z,56.80
2018-02-09T17:45:07.598Z,56.60
2018-02-09T17:47:35.989Z,56.80
2018-02-09T17:50:03.605Z,56.80
2018-02-09T17:52:31.276Z,57.40
2018-02-09T17:54:58.859Z,57.20
2018-02-09T17:57:27.211Z,57.60
2018-02-09T17:59:54.828Z,57.30
2018-02-09T18:02:22.717Z,57.60
2018-02-09T18:04:50.331Z,57.70
2018-02-09T18:07:17.989Z,58.00
2018-02-09T18:09:45.616Z,58.10
2018-02-09T18:12:13.350Z,58.60
2018-02-09T18:14:41.771Z,59.70
2018-02-09T18:17:09.359Z,59.80
2018-02-09T18:19:37.973Z,60.00
2018-02-09T18:22:06.361Z,61.40
2018-02-09T18:24:33.952Z,61.40
2018-02-09T18:27:01.573Z,61.50
2018-02-09T18:29:29.937Z,62.20
2018-02-09T18:31:57.571Z,62.10
2018-02-09T18:34:25.173Z,62.40
2018-02-09T18:36:52.848Z,62.50
2018-02-09T18:39:21.290Z,63.50
2018-02-09T18:41:48.895Z,63.50
2018-02-09T18:44:16.524Z,64.30
2018-02-09T18:46:44.285Z,65.00
2018-02-09T18:49:12.761Z,64.50
2018-02-09T18:51:40.366Z,64.50
2018-02-09T18:54:08.022Z,65.00
2018-02-09T18:56:35.653Z,65.10
2018-02-09T18:59:03.231Z,65.30
2018-02-09T19:01:31.638Z,66.20
2018-02-09T19:03:59.253Z,66.10
2018-02-09T19:06:26.898Z,66.20
2018-02-09T19:08:54.503Z,66.40
2018-02-09T19:11:22.126Z,66.60
2018-02-09T19:13:49.714Z,65.70
2018-02-09T19:16:17.670Z,65.80
2018-02-09T19:18:45.254Z,66.40
2018-02-09T19:21:12.882Z,66.10
2018-02-09T19:23:40.471Z,66.10
2018-02-09T19:26:08.078Z,66.10
2018-02-09T19:28:35.665Z,65.90
2018-02-09T19:31:04.277Z,65.70
2018-02-09T19:33:31.870Z,65.70
2018-02-09T19:35:59.495Z,65.70
2018-02-09T19:38:27.110Z,66.30
2018-02-09T19:40:54.746Z,66.80
2018-02-09T19:43:22.384Z,67.40
2018-02-09T19:45:50.001Z,67.80
2018-02-09T19:48:17.658Z,68.20
2018-02-09T19:50:45.283Z,68.90
2018-02-09T19:53:12.922Z,69.50
2018-02-09T19:55:40.526Z,70.10
2018-02-09T19:58:08.158Z,71.10
2018-02-09T20:00:35.794Z,71.30
2018-02-09T20:03:03.422Z,71.30
2018-02-09T20:05:31.815Z,72.00
2018-02-09T20:07:59.437Z,72.00
2018-02-09T20:10:27.055Z,71.40
2018-02-09T20:12:54.649Z,71.30
2018-02-09T20:15:22.306Z,71.10
2018-02-09T20:17:50.786Z,71.20
2018-02-09T20:20:18.423Z,71.30
2018-02-09T20:22:46.039Z,71.50
2018-02-09T20:25:13.666Z,71.50
2018-02-09T20:27:41.248Z,71.30
2018-02-09T20:30:08.858Z,71.30
2018-02-09T20:32:36.486Z,71.20
2018-02-09T20:35:04.125Z,71.50
2018-02-09T20:37:32.489Z,72.20
2018-02-09T20:40:00.112Z,72.10
2018-02-09T20:42:27.717Z,72.30
2018-02-09T20:44:55.354Z,72.20
2018-02-09T20:47:22.950Z,72.40
2018-02-09T20:49:50.535Z,72.40
2018-02-09T20:52:18.955Z,71.80
2018-02-09T20:54:46.542Z,71.80
2018-02-09T20:57:14.139Z,71.20
2018-02-09T20:59:42.509Z,69.30
2018-02-09T21:02:10.128Z,69.20
2018-02-09T21:04:38.382Z,69.00
2018-02-09T21:07:06.002Z,69.70
2018-02-09T21:09:33.618Z,70.20
2018-02-09T21:12:01.234Z,70.30
2018-02-09T21:14:28.850Z,70.90
2018-02-09T21:16:56.530Z,71.50
2018-02-09T21:19:24.150Z,71.90
2018-02-09T21:21:52.511Z,72.40
2018-02-09T21:24:20.902Z,72.90
2018-02-09T21:26:49.263Z,73.20
2018-02-09T21:29:16.879Z,73.20
2018-02-09T21:31:44.460Z,73.60
2018-02-09T21:34:12.103Z,73.60
2018-02-09T21:36:39.730Z,73.30
2018-02-09T21:39:07.315Z,72.80
2018-02-09T21:41:35.722Z,72.30
2018-02-09T21:44:03.327Z,72.30
2018-02-09T21:46:30.946Z,72.50
2018-02-09T21:48:58.562Z,73.00
2018-02-09T21:51:26.149Z,73.30
2018-02-09T21:53:54.571Z,74.50
2018-02-09T21:56:22.162Z,74.50
2018-02-09T21:58:49.750Z,74.40
2018-02-09T22:01:18.146Z,74.50
2018-02-09T22:03:45.753Z,74.40
2018-02-09T22:06:13.381Z,74.50
2018-02-09T22:08:41.374Z,75.00
2018-02-09T22:11:09.006Z,75.40
2018-02-09T22:13:37.354Z,75.20
2018-02-09T22:16:05.018Z,75.20
2018-02-09T22:18:32.610Z,75.20
2018-02-09T22:21:00.247Z,75.30
2018-02-09T22:23:27.867Z,75.40
2018-02-09T22:25:55.474Z,75.70
2018-02-09T22:28:23.532Z,75.90
2018-02-09T22:30:51.886Z,76.20
2018-02-09T22:33:19.662Z,76.20
2018-02-09T22:35:47.254Z,76.40
2018-02-09T22:38:14.854Z,76.60
2018-02-09T22:40:43.306Z,77.00
2018-02-09T22:43:10.879Z,77.00
2018-02-09T22:45:39.296Z,77.20
2018-02-09T22:48:06.911Z,77.20
2018-02-09T22:50:34.552Z,77.50
2018-02-09T22:53:02.146Z,77.70
2018-02-09T22:55:29.773Z,77.70
2018-02-09T22:57:57.400Z,77.50
2018-02-09T23:00:25.741Z,77.50
2018-02-09T23:02:53.350Z,77.50
2018-02-09T23:05:20.947Z,77.40
2018-02-09T23:07:48.558Z,77.60
2018-02-09T23:10:16.170Z,77.70
2018-02-09T23:12:43.777Z,77.60
2018-02-09T23:15:12.158Z,76.10
2018-02-09T23:17:39.777Z,76.60
2018-02-09T23:20:07.437Z,76.20
2018-02-09T23:22:35.090Z,75.70
2018-02-09T23:25:02.678Z,75.40
2018-02-09T23:27:31.174Z,75.50
2018-02-09T23:29:59.644Z,75.80
2018-02-09T23:32:28.026Z,77.20
2018-02-09T23:34:55.639Z,77.20
2018-02-09T23:37:24.886Z,80.70
2018-02-09T23:39:52.482Z,80.60
2018-02-09T23:42:20.106Z,81.60
2018-02-09T23:44:47.727Z,81.40
2018-02-09T23:47:16.127Z,80.80
2018-02-09T23:49:43.711Z,80.80
2018-02-09T23:52:11.490Z,79.30
2018-02-09T23:54:39.115Z,78.50
2018-02-09T23:57:06.703Z,77.90
2018-02-09T23:59:34.294Z,77.70
